createdAt,value
2023-04-09T00:00:47.030Z,7.42
2023-04-09T00:01:47.065Z,7.47
2023-04-09T00:02:47.067Z,7.32
2023-04-09T00:03:47.024Z,7.45
2023-04-09T00:04:47.084Z,7.38
2023-04-09T00:05:46.968Z,7.40
2023-04-09T00:06:46.979Z,7.53
2023-04-09T00:07:46.961Z,7.44
2023-04-09T00:08:46.955Z,7.47
2023-04-09T00:09:46.931Z,7.52
2023-04-09T00:10:46.936Z,7.42
2023-04-09T00:11:46.913Z,7.52
2023-04-09T00:12:46.907Z,7.41
2023-04-09T00:13:46.894Z,7.47
2023-04-09T00:14:46.879Z,7.47
2023-04-09T00:15:46.863Z,7.52
2023-04-09T00:16:46.870Z,7.49
2023-04-09T00:17:46.870Z,7.40
2023-04-09T00:18:46.831Z,7.42
2023-04-09T00:19:46.820Z,7.44
2023-04-09T00:20:46.832Z,7.40
2023-04-09T00:21:46.795Z,7.40
2023-04-09T00:22:46.804Z,7.40
2023-04-09T00:23:46.781Z,7.52
2023-04-09T00:24:46.774Z,7.35
2023-04-09T00:25:46.766Z,7.38
2023-04-09T00:26:46.747Z,7.40
2023-04-09T00:27:46.766Z,7.37
2023-04-09T00:28:46.723Z,7.42
2023-04-09T00:29:46.714Z,7.31
2023-04-09T00:30:46.713Z,7.40
2023-04-09T00:31:46.761Z,7.49
2023-04-09T00:32:46.739Z,7.38
2023-04-09T00:33:46.670Z,7.38
2023-04-09T00:34:47.876Z,7.45
2023-04-09T00:35:47.842Z,7.45
2023-04-09T00:36:47.797Z,7.32
2023-04-09T00:37:47.803Z,7.37
2023-04-09T00:38:47.808Z,7.32
2023-04-09T00:39:47.783Z,7.31
2023-04-09T00:40:47.793Z,7.27
2023-04-09T00:41:47.779Z,7.38
2023-04-09T00:42:47.789Z,7.34
2023-04-09T00:43:47.740Z,7.31
2023-04-09T00:44:47.748Z,7.35
2023-04-09T00:45:47.756Z,7.37
2023-04-09T00:46:47.710Z,7.34
2023-04-09T00:47:47.775Z,7.31
2023-04-09T00:48:47.696Z,7.31
2023-04-09T00:49:47.709Z,7.26
2023-04-09T00:50:47.675Z,7.32
2023-04-09T00:51:47.668Z,7.32
2023-04-09T00:52:47.647Z,7.24
2023-04-09T00:53:47.652Z,7.32
2023-04-09T00:54:47.633Z,7.35
2023-04-09T00:55:47.609Z,7.34
2023-04-09T00:56:47.619Z,7.34
2023-04-09T00:57:47.615Z,7.37
2023-04-09T00:58:47.578Z,7.35
2023-04-09T00:59:47.594Z,7.40
2023-04-09T01:00:47.617Z,7.38
2023-04-09T01:01:47.608Z,7.35
2023-04-09T01:02:47.761Z,7.40
2023-04-09T01:03:47.666Z,7.37
2023-04-09T01:04:47.538Z,7.38
2023-04-09T01:05:47.522Z,7.37
2023-04-09T01:06:47.529Z,7.32
2023-04-09T01:07:47.521Z,7.31
2023-04-09T01:08:48.469Z,7.29
2023-04-09T01:09:47.482Z,7.31
2023-04-09T01:10:47.458Z,7.22
2023-04-09T01:11:47.459Z,7.22
2023-04-09T01:12:47.451Z,7.34
2023-04-09T01:13:48.455Z,7.29
2023-04-09T01:14:47.443Z,7.32
2023-04-09T01:15:47.408Z,7.31
2023-04-09T01:16:47.424Z,7.37
2023-04-09T01:17:47.439Z,7.37
2023-04-09T01:18:47.349Z,7.32
2023-04-09T01:19:47.342Z,7.31
2023-04-09T01:20:47.392Z,7.38
2023-04-09T01:21:47.317Z,7.44
2023-04-09T01:22:47.363Z,7.40
2023-04-09T01:23:47.347Z,7.32
2023-04-09T01:24:47.319Z,7.27
2023-04-09T01:25:47.318Z,7.42
2023-04-09T01:26:47.296Z,7.27
2023-04-09T01:27:47.347Z,7.31
2023-04-09T01:28:47.272Z,7.32
2023-04-09T01:29:47.280Z,7.31
2023-04-09T01:30:47.379Z,7.29
2023-04-09T01:31:47.252Z,7.37
2023-04-09T01:32:47.291Z,7.38
2023-04-09T01:33:47.236Z,7.40
2023-04-09T01:34:47.221Z,7.37
2023-04-09T01:35:47.245Z,7.40
2023-04-09T01:36:47.203Z,7.31
2023-04-09T01:37:47.170Z,7.40
2023-04-09T01:38:47.170Z,7.41
2023-04-09T01:39:47.170Z,7.35
2023-04-09T01:40:47.144Z,7.26
2023-04-09T01:41:47.172Z,7.35
2023-04-09T01:42:47.126Z,7.27
2023-04-09T01:43:47.148Z,7.29
2023-04-09T01:44:47.148Z,7.27
2023-04-09T01:45:47.148Z,7.26
2023-04-09T01:46:47.110Z,7.31
2023-04-09T01:47:47.111Z,7.26
2023-04-09T01:48:47.119Z,7.22
2023-04-09T01:49:47.076Z,7.24
2023-04-09T01:50:47.075Z,7.20
2023-04-09T01:51:47.050Z,7.27
2023-04-09T01:52:47.034Z,7.29
2023-04-09T01:53:47.081Z,7.27
2023-04-09T01:54:47.046Z,7.15
2023-04-09T01:55:47.019Z,7.19
2023-04-09T01:56:47.026Z,7.17
2023-04-09T01:57:46.996Z,7.24
2023-04-09T01:58:46.994Z,7.17
2023-04-09T01:59:47.011Z,7.15
2023-04-09T02:00:46.958Z,7.08
2023-04-09T02:01:47.161Z,7.15
2023-04-09T02:02:47.007Z,7.12
2023-04-09T02:03:46.988Z,7.17
2023-04-09T02:04:46.903Z,7.23
2023-04-09T02:05:46.910Z,7.27
2023-04-09T02:06:46.908Z,7.32
2023-04-09T02:07:46.874Z,7.20
2023-04-09T02:08:46.901Z,7.26
2023-04-09T02:09:46.861Z,7.27
2023-04-09T02:10:46.865Z,7.17
2023-04-09T02:11:46.827Z,7.23
2023-04-09T02:12:46.829Z,7.22
2023-04-09T02:13:46.848Z,7.31
2023-04-09T02:14:47.859Z,7.13
2023-04-09T02:15:46.844Z,7.23
2023-04-09T02:16:46.829Z,7.20
2023-04-09T02:17:46.850Z,7.17
2023-04-09T02:18:46.793Z,7.20
2023-04-09T02:19:46.767Z,7.15
2023-04-09T02:20:46.767Z,7.16
2023-04-09T02:21:46.763Z,7.24
2023-04-09T02:22:46.739Z,7.15
2023-04-09T02:23:46.768Z,7.17
2023-04-09T02:24:46.727Z,7.09
2023-04-09T02:25:46.749Z,7.16
2023-04-09T02:26:46.688Z,7.09
2023-04-09T02:27:46.702Z,7.20
2023-04-09T02:28:46.706Z,7.08
2023-04-09T02:29:46.682Z,7.08
2023-04-09T02:30:46.708Z,7.15
2023-04-09T02:31:46.640Z,7.08
2023-04-09T02:32:46.690Z,7.13
2023-04-09T02:33:46.643Z,7.17
2023-04-09T02:34:46.652Z,7.12
2023-04-09T02:35:46.637Z,7.12
2023-04-09T02:36:46.598Z,7.02
2023-04-09T02:37:46.574Z,6.89
2023-04-09T02:38:46.601Z,6.87
2023-04-09T02:39:46.566Z,6.91
2023-04-09T02:40:46.545Z,6.81
2023-04-09T02:41:46.549Z,6.95
2023-04-09T02:42:46.540Z,6.83
2023-04-09T02:43:46.582Z,6.79
2023-04-09T02:44:46.495Z,6.76
2023-04-09T02:45:46.508Z,6.73
2023-04-09T02:47:46.532Z,6.71
2023-04-09T02:48:46.503Z,6.77
2023-04-09T02:49:46.499Z,6.77
2023-04-09T02:50:46.457Z,6.79
2023-04-09T02:51:46.450Z,6.73
2023-04-09T02:52:46.460Z,6.83
2023-04-09T02:53:46.423Z,6.81
2023-04-09T02:54:46.426Z,6.86
2023-04-09T02:55:46.419Z,6.87
2023-04-09T02:56:46.376Z,6.86
2023-04-09T02:57:46.367Z,6.89
2023-04-09T02:58:46.402Z,6.86
2023-04-09T02:59:46.378Z,6.86
2023-04-09T03:00:46.378Z,6.80
2023-04-09T03:01:46.382Z,6.89
2023-04-09T03:02:46.502Z,6.95
2023-04-09T03:03:46.418Z,6.83
2023-04-09T03:04:46.349Z,6.94
2023-04-09T03:05:46.294Z,6.86
2023-04-09T03:06:46.287Z,6.84
2023-04-09T03:07:46.294Z,6.87
2023-04-09T03:08:46.263Z,6.95
2023-04-09T03:09:46.278Z,6.94
2023-04-09T03:10:46.262Z,6.81
2023-04-09T03:11:46.226Z,6.97
2023-04-09T03:12:46.238Z,6.83
2023-04-09T03:13:46.226Z,6.90
2023-04-09T03:14:46.290Z,6.97
2023-04-09T03:15:46.210Z,6.99
2023-04-09T03:16:46.208Z,6.95
2023-04-09T03:17:46.227Z,7.05
2023-04-09T03:18:46.179Z,6.95
2023-04-09T03:19:46.186Z,6.94
2023-04-09T03:20:46.150Z,6.97
2023-04-09T03:21:46.129Z,6.97
2023-04-09T03:22:46.164Z,6.99
2023-04-09T03:23:46.133Z,6.97
2023-04-09T03:24:46.132Z,6.90
2023-04-09T03:25:46.099Z,6.99
2023-04-09T03:26:46.067Z,7.07
2023-04-09T03:27:46.074Z,7.01
2023-04-09T03:28:46.090Z,6.91
2023-04-09T03:29:46.098Z,6.86
2023-04-09T03:30:46.045Z,6.94
2023-04-09T03:31:46.037Z,6.98
2023-04-09T03:32:46.058Z,7.04
2023-04-09T03:33:46.017Z,6.94
2023-04-09T03:34:46.028Z,7.08
2023-04-09T03:35:46.043Z,7.04
2023-04-09T03:36:45.979Z,7.04
2023-04-09T03:37:45.978Z,7.08
2023-04-09T03:38:45.971Z,7.15
2023-04-09T03:39:45.969Z,7.07
2023-04-09T03:40:45.948Z,7.08
2023-04-09T03:41:45.932Z,7.08
2023-04-09T03:42:45.924Z,7.04
2023-04-09T03:43:45.920Z,7.04
2023-04-09T03:44:45.942Z,6.97
2023-04-09T03:45:45.903Z,7.02
2023-04-09T03:46:45.940Z,7.09
2023-04-09T03:47:45.894Z,7.09
2023-04-09T03:48:45.882Z,6.97
2023-04-09T03:49:45.869Z,7.08
2023-04-09T03:50:45.844Z,7.09
2023-04-09T03:51:45.866Z,7.02
2023-04-09T03:52:45.836Z,7.04
2023-04-09T03:53:45.841Z,7.12
2023-04-09T03:54:45.823Z,7.15
2023-04-09T03:55:45.815Z,7.20
2023-04-09T03:56:45.805Z,7.24
2023-04-09T03:57:45.780Z,7.17
2023-04-09T03:58:45.799Z,7.22
2023-04-09T03:59:45.766Z,7.31
2023-04-09T04:00:45.770Z,7.35
2023-04-09T04:01:45.838Z,7.22
2023-04-09T04:02:45.848Z,7.27
2023-04-09T04:03:45.825Z,7.41
2023-04-09T04:04:45.828Z,7.32
2023-04-09T04:05:45.694Z,7.35
2023-04-09T04:06:45.699Z,7.44
2023-04-09T04:07:45.692Z,7.37
2023-04-09T04:08:45.680Z,7.37
2023-04-09T04:09:45.683Z,7.40
2023-04-09T04:10:45.635Z,7.45
2023-04-09T04:11:45.653Z,7.41
2023-04-09T04:12:45.641Z,7.44
2023-04-09T04:13:45.607Z,7.38
2023-04-09T04:14:45.612Z,7.49
2023-04-09T04:15:45.605Z,7.42
2023-04-09T04:16:45.658Z,7.47
2023-04-09T04:17:45.597Z,7.44
2023-04-09T04:18:45.588Z,7.41
2023-04-09T04:19:45.551Z,7.42
2023-04-09T04:20:45.566Z,7.47
2023-04-09T04:21:45.541Z,7.37
2023-04-09T04:22:45.524Z,7.52
2023-04-09T04:23:45.529Z,7.50
2023-04-09T04:24:45.490Z,7.52
2023-04-09T04:25:45.495Z,7.47
2023-04-09T04:26:45.509Z,7.42
2023-04-09T04:27:45.480Z,7.38
2023-04-09T04:28:45.480Z,7.35
2023-04-09T04:29:45.449Z,7.40
2023-04-09T04:30:45.421Z,7.31
2023-04-09T04:31:46.591Z,7.26
2023-04-09T04:32:45.469Z,7.29
2023-04-09T04:33:45.431Z,7.19
2023-04-09T04:34:45.386Z,7.34
2023-04-09T04:35:45.438Z,7.34
2023-04-09T04:36:45.407Z,7.41
2023-04-09T04:37:45.374Z,7.38
2023-04-09T04:38:45.361Z,7.34
2023-04-09T04:39:45.433Z,7.32
2023-04-09T04:40:45.351Z,7.38
2023-04-09T04:41:45.351Z,7.40
2023-04-09T04:42:45.320Z,7.45
2023-04-09T04:43:45.350Z,7.40
2023-04-09T04:44:45.364Z,7.50
2023-04-09T04:45:45.351Z,7.47
2023-04-09T04:46:45.313Z,7.45
2023-04-09T04:47:45.349Z,7.40
2023-04-09T04:48:45.241Z,7.45
2023-04-09T04:49:45.243Z,7.40
2023-04-09T04:50:45.249Z,7.47
2023-04-09T04:51:45.233Z,7.40
2023-04-09T04:52:45.264Z,7.45
2023-04-09T04:53:45.214Z,7.41
2023-04-09T04:54:45.216Z,7.41
2023-04-09T04:55:45.188Z,7.45
2023-04-09T04:56:45.174Z,7.49
2023-04-09T04:57:45.177Z,7.40
2023-04-09T04:58:45.147Z,7.40
2023-04-09T04:59:45.141Z,7.50
2023-04-09T05:00:45.239Z,7.31
2023-04-09T05:01:45.172Z,7.42
2023-04-09T05:02:45.181Z,7.45
2023-04-09T05:03:45.199Z,7.52
2023-04-09T05:04:45.099Z,7.42
2023-04-09T05:05:45.107Z,7.47
2023-04-09T05:06:45.085Z,7.47
2023-04-09T05:07:45.095Z,7.52
2023-04-09T05:08:45.034Z,7.41
2023-04-09T05:09:45.065Z,7.47
2023-04-09T05:10:45.060Z,7.41
2023-04-09T05:11:45.063Z,7.32
2023-04-09T05:12:45.057Z,7.42
2023-04-09T05:13:45.037Z,7.53
2023-04-09T05:14:45.029Z,7.50
2023-04-09T05:15:45.016Z,7.42
2023-04-09T05:16:45.027Z,7.38
2023-04-09T05:17:45.002Z,7.56
2023-04-09T05:18:45.028Z,7.44
2023-04-09T05:19:44.957Z,7.49
2023-04-09T05:20:44.980Z,7.44
2023-04-09T05:21:46.819Z,7.53
2023-04-09T05:22:44.935Z,7.55
2023-04-09T05:23:44.925Z,7.52
2023-04-09T05:24:44.900Z,7.50
2023-04-09T05:25:44.892Z,7.38
2023-04-09T05:26:44.883Z,7.52
2023-04-09T05:27:44.865Z,7.56
2023-04-09T05:28:44.880Z,7.63
2023-04-09T05:29:44.861Z,7.53
2023-04-09T05:30:44.864Z,7.63
2023-04-09T05:31:44.825Z,7.63
2023-04-09T05:32:44.841Z,7.60
2023-04-09T05:33:44.802Z,7.72
2023-04-09T05:34:44.793Z,7.67
2023-04-09T05:35:45.450Z,7.59
2023-04-09T05:36:45.023Z,7.67
2023-04-09T05:37:44.781Z,7.77
2023-04-09T05:38:44.797Z,7.72
2023-04-09T05:39:44.803Z,7.79
2023-04-09T05:40:44.760Z,7.67
2023-04-09T05:41:44.746Z,7.69
2023-04-09T05:42:44.722Z,7.77
2023-04-09T05:43:44.717Z,7.71
2023-04-09T05:44:44.713Z,7.82
2023-04-09T05:45:44.740Z,7.82
2023-04-09T05:46:44.682Z,7.77
2023-04-09T05:47:44.720Z,7.77
2023-04-09T05:48:44.693Z,7.85
2023-04-09T05:49:44.693Z,7.87
2023-04-09T05:50:54.072Z,7.87
2023-04-09T05:51:46.651Z,7.96
2023-04-09T05:52:44.618Z,7.94
2023-04-09T05:53:44.632Z,7.99
2023-04-09T05:54:44.629Z,7.84
2023-04-09T05:55:44.622Z,7.92
2023-04-09T05:56:44.591Z,7.89
2023-04-09T05:57:45.973Z,7.89
2023-04-09T05:58:47.587Z,7.93
2023-04-09T05:59:44.564Z,7.97
2023-04-09T06:00:44.611Z,7.93
2023-04-09T06:01:44.560Z,7.94
2023-04-09T06:02:44.713Z,7.93
2023-04-09T06:03:44.638Z,8.07
2023-04-09T06:04:44.560Z,7.90
2023-04-09T06:05:44.548Z,8.03
2023-04-09T06:06:44.464Z,8.02
2023-04-09T06:07:44.493Z,8.07
2023-04-09T06:08:45.386Z,8.08
2023-04-09T06:09:51.403Z,8.07
2023-04-09T06:10:44.487Z,7.99
2023-04-09T06:11:47.039Z,7.97
2023-04-09T06:12:44.442Z,8.04
2023-04-09T06:13:44.436Z,8.03
2023-04-09T06:14:44.438Z,8.10
2023-04-09T06:15:44.454Z,8.11
2023-04-09T06:16:44.400Z,8.11
2023-04-09T06:17:44.419Z,8.14
2023-04-09T06:18:44.374Z,8.14
2023-04-09T06:19:44.364Z,8.26
2023-04-09T06:20:44.382Z,8.11
2023-04-09T06:21:44.359Z,8.26
2023-04-09T06:22:44.350Z,8.17
2023-04-09T06:23:44.335Z,8.15
2023-04-09T06:24:44.335Z,8.25
2023-04-09T06:25:44.327Z,8.26
2023-04-09T06:26:44.329Z,8.32
2023-04-09T06:27:44.478Z,8.33
2023-04-09T06:28:44.275Z,8.40
2023-04-09T06:29:44.257Z,8.37
2023-04-09T06:30:44.402Z,8.35
2023-04-09T06:31:44.244Z,8.40
2023-04-09T06:32:53.672Z,8.42
2023-04-09T06:33:46.228Z,8.42
2023-04-09T06:34:44.215Z,8.33
2023-04-09T06:35:44.205Z,8.33
2023-04-09T06:36:44.184Z,8.33
2023-04-09T06:37:44.161Z,8.30
2023-04-09T06:38:44.185Z,8.26
2023-04-09T06:39:50.688Z,8.22
2023-04-09T06:40:46.147Z,8.20
2023-04-09T06:41:44.140Z,8.30
2023-04-09T06:42:44.151Z,8.25
2023-04-09T06:43:44.115Z,8.26
2023-04-09T06:44:44.091Z,8.30
2023-04-09T06:45:44.068Z,8.36
2023-04-09T06:46:44.098Z,8.36
2023-04-09T06:47:44.085Z,8.33
2023-04-09T06:48:44.054Z,8.47
2023-04-09T06:49:44.032Z,8.44
2023-04-09T06:50:44.047Z,8.50
2023-04-09T06:51:44.020Z,8.58
2023-04-09T06:52:44.008Z,8.66
2023-04-09T06:53:43.999Z,8.72
2023-04-09T06:54:44.040Z,8.72
2023-04-09T06:55:44.011Z,8.72
2023-04-09T06:56:44.099Z,8.78
2023-04-09T06:57:43.983Z,8.72
2023-04-09T06:58:43.961Z,8.88
2023-04-09T06:59:43.929Z,8.86
2023-04-09T07:00:43.944Z,8.78
2023-04-09T07:01:44.040Z,8.72
2023-04-09T07:02:44.146Z,8.72
2023-04-09T07:03:43.951Z,8.66
2023-04-09T07:04:43.974Z,8.65
2023-04-09T07:05:43.876Z,8.72
2023-04-09T07:06:43.943Z,8.79
2023-04-09T07:07:43.943Z,8.78
2023-04-09T07:08:43.832Z,8.87
2023-04-09T07:09:43.846Z,8.90
2023-04-09T07:10:43.818Z,8.88
2023-04-09T07:11:43.851Z,8.88
2023-04-09T07:12:43.840Z,8.90
2023-04-09T07:13:43.829Z,8.96
2023-04-09T07:14:43.870Z,8.88
2023-04-09T07:15:43.843Z,9.02
2023-04-09T07:16:43.906Z,9.04
2023-04-09T07:17:43.904Z,8.97
2023-04-09T07:18:43.839Z,8.99
2023-04-09T07:19:43.758Z,9.02
2023-04-09T07:20:43.704Z,9.01
2023-04-09T07:21:43.740Z,9.09
2023-04-09T07:22:43.693Z,9.06
2023-04-09T07:23:43.696Z,9.12
2023-04-09T07:24:43.779Z,9.18
2023-04-09T07:25:43.683Z,9.18
2023-04-09T07:26:43.666Z,9.23
2023-04-09T07:27:43.658Z,9.32
2023-04-09T07:28:43.656Z,9.39
2023-04-09T07:29:43.644Z,9.27
2023-04-09T07:30:43.638Z,9.45
2023-04-09T07:31:43.649Z,9.39
2023-04-09T07:32:43.665Z,9.40
2023-04-09T07:33:43.588Z,9.48
2023-04-09T07:34:43.576Z,9.46
2023-04-09T07:35:43.591Z,9.40
2023-04-09T07:36:44.523Z,9.56
2023-04-09T07:37:43.581Z,9.48
2023-04-09T07:38:43.532Z,9.67
2023-04-09T07:39:43.535Z,9.71
2023-04-09T07:40:43.536Z,9.70
2023-04-09T07:41:43.552Z,9.82
2023-04-09T07:42:43.494Z,9.96
2023-04-09T07:43:43.513Z,9.94
2023-04-09T07:44:43.476Z,9.93
2023-04-09T07:45:43.444Z,10.01
2023-04-09T07:46:43.578Z,9.99
2023-04-09T07:47:43.442Z,10.09
2023-04-09T07:48:43.468Z,9.97
2023-04-09T07:49:43.408Z,10.00
2023-04-09T07:50:43.416Z,10.03
2023-04-09T07:51:43.655Z,10.18
2023-04-09T07:52:43.399Z,10.10
2023-04-09T07:53:43.371Z,10.17
2023-04-09T07:54:43.363Z,10.06
2023-04-09T07:55:43.376Z,10.12
2023-04-09T07:56:43.360Z,10.18
2023-04-09T07:57:43.343Z,10.15
2023-04-09T07:58:43.334Z,10.26
2023-04-09T07:59:43.318Z,10.26
2023-04-09T08:00:43.325Z,10.25
2023-04-09T08:01:43.393Z,10.22
2023-04-09T08:02:43.398Z,10.24
2023-04-09T08:03:43.337Z,10.30
2023-04-09T08:04:43.470Z,10.34
2023-04-09T08:05:43.268Z,10.47
2023-04-09T08:06:43.293Z,10.37
2023-04-09T08:07:43.236Z,10.51
2023-04-09T08:08:43.251Z,10.60
2023-04-09T08:09:43.217Z,10.74
2023-04-09T08:10:43.219Z,10.71
2023-04-09T08:11:43.224Z,10.89
2023-04-09T08:12:43.207Z,10.88
2023-04-09T08:13:43.208Z,10.88
2023-04-09T08:14:43.203Z,10.86
2023-04-09T08:15:43.155Z,10.98
2023-04-09T08:16:43.243Z,10.89
2023-04-09T08:17:43.184Z,10.96
2023-04-09T08:18:43.139Z,11.27
2023-04-09T08:19:43.136Z,11.34
2023-04-09T08:20:43.132Z,11.39
2023-04-09T08:21:43.212Z,11.43
2023-04-09T08:22:43.116Z,11.49
2023-04-09T08:23:43.092Z,11.56
2023-04-09T08:24:43.105Z,11.65
2023-04-09T08:25:43.038Z,11.61
2023-04-09T08:26:43.050Z,11.49
2023-04-09T08:27:43.080Z,11.53
2023-04-09T08:28:43.042Z,11.43
2023-04-09T08:29:43.038Z,11.39
2023-04-09T08:30:43.038Z,11.28
2023-04-09T08:31:43.031Z,11.34
2023-04-09T08:32:43.034Z,11.34
2023-04-09T08:33:43.008Z,11.38
2023-04-09T08:34:42.997Z,11.31
2023-04-09T08:35:42.973Z,11.38
2023-04-09T08:36:42.979Z,11.38
2023-04-09T08:37:42.948Z,11.52
2023-04-09T08:38:42.947Z,11.31
2023-04-09T08:39:42.931Z,11.34
2023-04-09T08:40:42.934Z,11.50
2023-04-09T08:41:42.928Z,11.61
2023-04-09T08:42:42.925Z,11.74
2023-04-09T08:43:56.986Z,11.80
2023-04-09T08:44:44.895Z,11.82
2023-04-09T08:45:42.923Z,11.72
2023-04-09T08:46:42.889Z,11.59
2023-04-09T08:47:42.983Z,11.39
2023-04-09T08:48:42.952Z,11.54
2023-04-09T08:49:42.850Z,11.77
2023-04-09T08:50:42.847Z,11.80
2023-04-09T08:51:42.811Z,11.74
2023-04-09T08:52:42.817Z,11.53
2023-04-09T08:53:42.798Z,11.52
2023-04-09T08:54:42.838Z,11.64
2023-04-09T08:55:42.778Z,11.61
2023-04-09T08:56:42.888Z,11.47
2023-04-09T08:57:42.755Z,11.53
2023-04-09T08:58:42.766Z,11.31
2023-04-09T08:59:42.733Z,11.39
2023-04-09T09:00:42.726Z,11.34
2023-04-09T09:01:42.770Z,11.31
2023-04-09T09:02:42.794Z,11.25
2023-04-09T09:03:42.752Z,11.16
2023-04-09T09:04:42.708Z,11.06
2023-04-09T09:05:42.697Z,11.07
2023-04-09T09:06:42.673Z,11.02
2023-04-09T09:07:42.655Z,10.99
2023-04-09T09:08:42.657Z,11.11
2023-04-09T09:09:42.715Z,11.32
2023-04-09T09:10:42.622Z,11.49
2023-04-09T09:11:42.616Z,11.50
2023-04-09T09:12:42.616Z,11.89
2023-04-09T09:13:42.602Z,12.56
2023-04-09T09:14:42.564Z,13.07
2023-04-09T09:15:42.563Z,13.14
2023-04-09T09:16:42.784Z,13.27
2023-04-09T09:17:42.664Z,13.79
2023-04-09T09:18:42.612Z,14.16
2023-04-09T09:19:42.514Z,14.75
2023-04-09T09:20:42.514Z,14.78
2023-04-09T09:21:42.560Z,14.39
2023-04-09T09:22:42.502Z,13.73
2023-04-09T09:23:42.499Z,13.21
2023-04-09T09:24:42.481Z,12.81
2023-04-09T09:25:42.471Z,12.64
2023-04-09T09:26:42.497Z,12.46
2023-04-09T09:27:42.463Z,12.56
2023-04-09T09:28:42.453Z,12.51
2023-04-09T09:29:42.399Z,12.69
2023-04-09T09:30:42.451Z,12.79
2023-04-09T09:31:42.422Z,12.77
2023-04-09T09:32:42.433Z,12.66
2023-04-09T09:33:42.401Z,12.51
2023-04-09T09:34:42.414Z,12.56
2023-04-09T09:35:42.410Z,12.44
2023-04-09T09:36:42.355Z,12.44
2023-04-09T09:37:42.334Z,12.34
2023-04-09T09:38:42.336Z,12.41
2023-04-09T09:39:42.316Z,12.26
2023-04-09T09:40:42.341Z,12.39
2023-04-09T09:41:42.330Z,12.48
2023-04-09T09:42:42.311Z,12.60
2023-04-09T09:43:42.338Z,12.85
2023-04-09T09:44:42.247Z,13.11
2023-04-09T09:45:42.264Z,13.11
2023-04-09T09:46:42.279Z,13.02
2023-04-09T09:47:42.266Z,12.92
2023-04-09T09:48:42.194Z,13.03
2023-04-09T09:49:42.171Z,13.29
2023-04-09T09:50:42.185Z,13.44
2023-04-09T09:51:42.177Z,13.69
2023-04-09T09:52:42.167Z,13.84
2023-04-09T09:53:42.158Z,13.96
2023-04-09T09:54:42.134Z,13.74
2023-04-09T09:55:42.128Z,13.54
2023-04-09T09:56:42.118Z,13.65
2023-04-09T09:57:42.175Z,13.77
2023-04-09T09:58:42.094Z,14.06
2023-04-09T09:59:42.084Z,14.42
2023-04-09T10:00:42.062Z,14.47
2023-04-09T10:01:42.141Z,14.57
2023-04-09T10:02:42.170Z,14.71
2023-04-09T10:03:42.008Z,14.86
2023-04-09T10:04:42.067Z,14.95
2023-04-09T10:05:42.009Z,15.15
2023-04-09T10:06:41.993Z,15.31
2023-04-09T10:07:42.007Z,15.35
2023-04-09T10:08:41.985Z,15.23
2023-04-09T10:09:41.967Z,14.80
2023-04-09T10:10:41.984Z,14.49
2023-04-09T10:11:41.949Z,14.09
2023-04-09T10:12:41.948Z,13.77
2023-04-09T10:13:41.917Z,13.73
2023-04-09T10:14:41.899Z,13.88
2023-04-09T10:15:41.942Z,13.76
2023-04-09T10:16:41.910Z,13.70
2023-04-09T10:17:41.986Z,13.55
2023-04-09T10:18:41.868Z,13.51
2023-04-09T10:19:41.865Z,13.47
2023-04-09T10:20:41.878Z,13.52
2023-04-09T10:21:42.840Z,13.74
2023-04-09T10:22:42.846Z,13.96
2023-04-09T10:23:41.824Z,14.04
2023-04-09T10:24:41.801Z,14.21
2023-04-09T10:25:41.797Z,13.83
2023-04-09T10:26:41.834Z,13.77
2023-04-09T10:27:41.811Z,13.83
2023-04-09T10:28:41.759Z,13.84
2023-04-09T10:29:41.758Z,13.94
2023-04-09T10:30:41.754Z,14.04
2023-04-09T10:31:41.811Z,14.10
2023-04-09T10:32:41.782Z,13.96
2023-04-09T10:33:41.708Z,13.79
2023-04-09T10:34:41.768Z,13.56
2023-04-09T10:35:41.727Z,13.47
2023-04-09T10:36:41.706Z,13.46
2023-04-09T10:37:41.732Z,13.55
2023-04-09T10:38:41.728Z,13.59
2023-04-09T10:39:41.715Z,13.46
2023-04-09T10:40:41.675Z,13.58
2023-04-09T10:41:41.686Z,13.73
2023-04-09T10:42:41.642Z,14.04
2023-04-09T10:43:41.627Z,14.31
2023-04-09T10:44:41.729Z,14.56
2023-04-09T10:45:41.623Z,14.80
2023-04-09T10:46:41.701Z,14.99
2023-04-09T10:47:41.656Z,15.20
2023-04-09T10:48:41.607Z,15.31
2023-04-09T10:49:41.593Z,15.42
2023-04-09T10:50:41.555Z,15.51
2023-04-09T10:51:41.537Z,15.75
2023-04-09T10:52:41.528Z,15.85
2023-04-09T10:53:41.521Z,15.92
2023-04-09T10:54:42.545Z,15.92
2023-04-09T10:55:41.518Z,15.85
2023-04-09T10:56:41.479Z,15.97
2023-04-09T10:57:41.507Z,15.84
2023-04-09T10:58:41.500Z,15.92
2023-04-09T10:59:41.468Z,15.88
2023-04-09T11:00:41.490Z,15.97
2023-04-09T11:01:41.504Z,16.12
2023-04-09T11:02:41.536Z,16.18
2023-04-09T11:03:41.463Z,16.33
2023-04-09T11:04:41.432Z,16.23
2023-04-09T11:05:41.410Z,16.45
2023-04-09T11:06:41.380Z,16.55
2023-04-09T11:07:41.390Z,16.44
2023-04-09T11:08:41.376Z,16.20
2023-04-09T11:09:41.348Z,16.14
2023-04-09T11:10:41.336Z,15.76
2023-04-09T11:11:41.322Z,15.52
2023-04-09T11:12:41.322Z,16.31
2023-04-09T11:13:41.323Z,16.75
2023-04-09T11:14:41.312Z,17.57
2023-04-09T11:15:41.301Z,18.02
2023-04-09T11:16:41.335Z,17.48
2023-04-09T11:17:41.356Z,16.42
2023-04-09T11:18:41.261Z,15.54
2023-04-09T11:19:41.286Z,15.13
2023-04-09T11:20:41.282Z,14.67
2023-04-09T11:21:41.237Z,14.62
2023-04-09T11:22:41.198Z,14.80
2023-04-09T11:23:41.260Z,15.11
2023-04-09T11:24:41.219Z,15.43
2023-04-09T11:25:41.196Z,15.82
2023-04-09T11:26:41.917Z,16.42
2023-04-09T11:27:41.209Z,16.89
2023-04-09T11:28:41.367Z,17.32
2023-04-09T11:29:41.197Z,18.07
2023-04-09T11:30:41.182Z,17.78
2023-04-09T11:31:41.168Z,17.44
2023-04-09T11:32:42.132Z,18.02
2023-04-09T11:33:41.197Z,18.70
2023-04-09T11:34:41.126Z,19.18
2023-04-09T11:35:41.129Z,19.32
2023-04-09T11:36:41.118Z,19.95
2023-04-09T11:37:41.092Z,20.39
2023-04-09T11:38:41.091Z,20.58
2023-04-09T11:39:41.071Z,20.51
2023-04-09T11:40:41.065Z,20.33
2023-04-09T11:41:41.065Z,20.06
2023-04-09T11:42:41.045Z,18.79
2023-04-09T11:43:41.064Z,18.49
2023-04-09T11:44:41.019Z,19.05
2023-04-09T11:45:41.010Z,18.98
2023-04-09T11:46:41.094Z,19.57
2023-04-09T11:47:41.024Z,19.60
2023-04-09T11:48:40.988Z,19.15
2023-04-09T11:49:40.968Z,18.58
2023-04-09T11:50:40.968Z,18.94
2023-04-09T11:51:41.002Z,19.40
2023-04-09T11:52:40.926Z,19.88
2023-04-09T11:53:40.933Z,19.65
2023-04-09T11:54:40.926Z,19.58
2023-04-09T11:55:40.945Z,19.58
2023-04-09T11:56:40.921Z,20.03
2023-04-09T11:57:40.914Z,19.78
2023-04-09T11:58:40.916Z,18.79
2023-04-09T11:59:40.876Z,18.50
2023-04-09T12:00:40.877Z,17.95
2023-04-09T12:01:40.948Z,17.64
2023-04-09T12:02:40.980Z,17.29
2023-04-09T12:03:40.908Z,17.88
2023-04-09T12:04:40.915Z,18.65
2023-04-09T12:05:42.796Z,19.75
2023-04-09T12:06:41.819Z,20.54
2023-04-09T12:07:44.162Z,21.21
2023-04-09T12:08:42.820Z,21.98
2023-04-09T12:09:40.783Z,22.44
2023-04-09T12:10:40.790Z,22.52
2023-04-09T12:11:40.759Z,21.27
2023-04-09T12:12:40.728Z,20.95
2023-04-09T12:13:40.747Z,20.08
2023-04-09T12:14:40.725Z,20.51
2023-04-09T12:15:40.723Z,20.33
2023-04-09T12:16:40.763Z,19.86
2023-04-09T12:17:40.736Z,19.66
2023-04-09T12:18:40.717Z,19.32
2023-04-09T12:19:40.659Z,18.99
2023-04-09T12:20:40.696Z,18.10
2023-04-09T12:21:40.648Z,17.82
2023-04-09T12:22:40.681Z,17.82
2023-04-09T12:23:40.670Z,17.28
2023-04-09T12:24:40.635Z,16.88
2023-04-09T12:25:40.598Z,16.92
2023-04-09T12:26:40.615Z,17.04
2023-04-09T12:27:40.593Z,17.11
2023-04-09T12:28:40.626Z,17.20
2023-04-09T12:29:40.560Z,16.93
2023-04-09T12:30:40.622Z,17.18
2023-04-09T12:31:40.636Z,17.36
2023-04-09T12:32:40.595Z,17.71
2023-04-09T12:33:40.630Z,17.87
2023-04-09T12:34:40.522Z,17.91
2023-04-09T12:35:41.824Z,18.15
2023-04-09T12:36:40.522Z,18.17
2023-04-09T12:37:40.510Z,18.19
2023-04-09T12:38:40.513Z,18.29
2023-04-09T12:39:40.480Z,18.15
2023-04-09T12:40:40.472Z,18.02
2023-04-09T12:41:40.462Z,18.98
2023-04-09T12:42:40.464Z,19.86
2023-04-09T12:43:40.450Z,19.69
2023-04-09T12:44:40.414Z,19.17
2023-04-09T12:45:40.410Z,18.86
2023-04-09T12:46:40.414Z,18.42
2023-04-09T12:47:40.411Z,18.52
2023-04-09T12:48:40.425Z,18.67
2023-04-09T12:49:42.324Z,18.61
2023-04-09T12:50:41.378Z,18.59
2023-04-09T12:51:40.329Z,18.42
2023-04-09T12:52:40.352Z,18.70
2023-04-09T12:53:40.361Z,18.72
2023-04-09T12:54:40.309Z,18.17
2023-04-09T12:55:42.657Z,17.67
2023-04-09T12:56:41.297Z,17.44
2023-04-09T12:57:40.298Z,17.33
2023-04-09T12:58:41.301Z,17.35
2023-04-09T12:59:40.261Z,17.33
2023-04-09T13:00:40.268Z,17.25
2023-04-09T13:01:42.132Z,17.30
2023-04-09T13:02:43.612Z,17.08
2023-04-09T13:03:40.362Z,16.73
2023-04-09T13:04:41.302Z,16.55
2023-04-09T13:05:40.220Z,16.93
2023-04-09T13:07:15.557Z,17.23
2023-04-09T13:08:14.105Z,17.08
2023-04-09T13:08:40.182Z,16.88